sensor_id;sensor_type;location;lat;lon;timestamp;temperature;humidity
53802;DHT22;39709;53.334;6.534;2023-02-28T00:01:20;4.80;99.90
53802;DHT22;39709;53.334;6.534;2023-02-28T00:03:46;4.40;99.90
53802;DHT22;39709;53.334;6.534;2023-02-28T00:06:12;3.90;99.90
53802;DHT22;39709;53.334;6.534;2023-02-28T00:08:38;4.40;99.90
53802;DHT22;39709;53.334;6.534;2023-02-28T00:11:15;4.50;99.90
53802;DHT22;39709;53.334;6.534;2023-02-28T00:13:43;4.10;99.90
53802;DHT22;39709;53.334;6.534;2023-02-28T00:16:14;5.00;99.90
53802;DHT22;39709;53.334;6.534;2023-02-28T00:18:40;4.80;99.90
53802;DHT22;39709;53.334;6.534;2023-02-28T00:21:07;4.10;99.90
53802;DHT22;39709;53.334;6.534;2023-02-28T00:23:33;4.30;99.90
53802;DHT22;39709;53.334;6.534;2023-02-28T00:25:58;4.30;99.90
53802;DHT22;39709;53.334;6.534;2023-02-28T00:28:24;4.10;99.90
53802;DHT22;39709;53.334;6.534;2023-02-28T00:30:50;4.10;99.90
53802;DHT22;39709;53.334;6.534;2023-02-28T00:33:16;4.10;99.90
53802;DHT22;39709;53.334;6.534;2023-02-28T00:35:42;4.50;99.90
53802;DHT22;39709;53.334;6.534;2023-02-28T00:38:08;4.60;99.90
53802;DHT22;39709;53.334;6.534;2023-02-28T00:40:33;4.70;99.90
53802;DHT22;39709;53.334;6.534;2023-02-28T00:42:59;4.00;99.90
53802;DHT22;39709;53.334;6.534;2023-02-28T00:45:25;4.10;99.90
53802;DHT22;39709;53.334;6.534;2023-02-28T00:47:51;4.60;99.90
53802;DHT22;39709;53.334;6.534;2023-02-28T00:50:18;4.70;99.90
53802;DHT22;39709;53.334;6.534;2023-02-28T00:52:45;4.30;99.90
53802;DHT22;39709;53.334;6.534;2023-02-28T00:55:11;4.20;99.90
53802;DHT22;39709;53.334;6.534;2023-02-28T00:57:36;3.90;99.90
53802;DHT22;39709;53.334;6.534;2023-02-28T01:00:04;3.90;99.90
53802;DHT22;39709;53.334;6.534;2023-02-28T01:02:29;4.50;99.90
53802;DHT22;39709;53.334;6.534;2023-02-28T01:04:55;4.60;99.90
53802;DHT22;39709;53.334;6.534;2023-02-28T01:07:23;3.90;99.90
53802;DHT22;39709;53.334;6.534;2023-02-28T01:09:48;3.90;99.90
53802;DHT22;39709;53.334;6.534;2023-02-28T01:12:14;4.50;99.90
53802;DHT22;39709;53.334;6.534;2023-02-28T01:14:40;4.70;99.90
53802;DHT22;39709;53.334;6.534;2023-02-28T01:17:06;4.30;99.90
53802;DHT22;39709;53.334;6.534;2023-02-28T01:19:32;3.90;99.90
53802;DHT22;39709;53.334;6.534;2023-02-28T01:22:01;4.30;99.90
53802;DHT22;39709;53.334;6.534;2023-02-28T01:24:27;4.40;99.90
53802;DHT22;39709;53.334;6.534;2023-02-28T01:26:53;4.30;99.90
53802;DHT22;39709;53.334;6.534;2023-02-28T01:29:19;4.20;99.90
53802;DHT22;39709;53.334;6.534;2023-02-28T01:31:44;4.00;99.90
53802;DHT22;39709;53.334;6.534;2023-02-28T01:34:10;4.20;99.90
53802;DHT22;39709;53.334;6.534;2023-02-28T01:36:36;4.50;99.90
53802;DHT22;39709;53.334;6.534;2023-02-28T01:39:02;4.20;99.90
53802;DHT22;39709;53.334;6.534;2023-02-28T01:41:30;4.40;99.90
53802;DHT22;39709;53.334;6.534;2023-02-28T01:46:23;4.10;99.90
53802;DHT22;39709;53.334;6.534;2023-02-28T01:48:55;4.80;99.90
53802;DHT22;39709;53.334;6.534;2023-02-28T01:51:31;4.70;99.90
53802;DHT22;39709;53.334;6.534;2023-02-28T01:54:07;4.60;99.90
53802;DHT22;39709;53.334;6.534;2023-02-28T01:56:43;4.40;99.90
53802;DHT22;39709;53.334;6.534;2023-02-28T01:59:11;4.00;99.90
53802;DHT22;39709;53.334;6.534;2023-02-28T02:01:37;4.00;99.90
53802;DHT22;39709;53.334;6.534;2023-02-28T02:04:04;4.80;99.90
53802;DHT22;39709;53.334;6.534;2023-02-28T02:06:50;4.10;99.90
53802;DHT22;39709;53.334;6.534;2023-02-28T02:09:16;4.60;99.90
53802;DHT22;39709;53.334;6.534;2023-02-28T02:11:43;4.60;99.90
53802;DHT22;39709;53.334;6.534;2023-02-28T02:15:07;4.60;99.90
53802;DHT22;39709;53.334;6.534;2023-02-28T02:17:38;4.00;99.90
53802;DHT22;39709;53.334;6.534;2023-02-28T02:25:54;4.50;99.90
53802;DHT22;39709;53.334;6.534;2023-02-28T02:34:16;4.30;99.90
53802;DHT22;39709;53.334;6.534;2023-02-28T02:36:50;4.20;99.90
53802;DHT22;39709;53.334;6.534;2023-02-28T02:42:12;4.10;99.90
53802;DHT22;39709;53.334;6.534;2023-02-28T02:44:49;5.00;99.90
53802;DHT22;39709;53.334;6.534;2023-02-28T02:47:19;4.10;99.90
53802;DHT22;39709;53.334;6.534;2023-02-28T02:49:50;4.20;99.90
53802;DHT22;39709;53.334;6.534;2023-02-28T02:52:22;4.70;99.90
53802;DHT22;39709;53.334;6.534;2023-02-28T02:54:50;3.90;99.90
53802;DHT22;39709;53.334;6.534;2023-02-28T02:57:49;4.80;99.90
53802;DHT22;39709;53.334;6.534;2023-02-28T03:00:19;4.20;99.90
53802;DHT22;39709;53.334;6.534;2023-02-28T03:02:47;4.70;99.90
53802;DHT22;39709;53.334;6.534;2023-02-28T03:05:25;4.10;99.90
53802;DHT22;39709;53.334;6.534;2023-02-28T03:07:51;4.10;99.90
53802;DHT22;39709;53.334;6.534;2023-02-28T03:10:35;4.10;99.90
53802;DHT22;39709;53.334;6.534;2023-02-28T03:18:43;4.80;99.90
53802;DHT22;39709;53.334;6.534;2023-02-28T03:21:55;4.70;99.90
53802;DHT22;39709;53.334;6.534;2023-02-28T03:26:58;4.10;99.90
53802;DHT22;39709;53.334;6.534;2023-02-28T03:29:35;4.20;99.90
53802;DHT22;39709;53.334;6.534;2023-02-28T03:32:11;4.10;99.90
53802;DHT22;39709;53.334;6.534;2023-02-28T03:35:01;4.80;99.90
53802;DHT22;39709;53.334;6.534;2023-02-28T03:37:32;4.90;99.90
53802;DHT22;39709;53.334;6.534;2023-02-28T03:40:22;4.80;99.90
53802;DHT22;39709;53.334;6.534;2023-02-28T03:42:52;4.10;99.90
53802;DHT22;39709;53.334;6.534;2023-02-28T03:45:26;4.00;99.90
53802;DHT22;39709;53.334;6.534;2023-02-28T03:47:55;4.80;99.90
53802;DHT22;39709;53.334;6.534;2023-02-28T03:50:32;4.00;99.90
53802;DHT22;39709;53.334;6.534;2023-02-28T03:53:18;3.90;99.90
53802;DHT22;39709;53.334;6.534;2023-02-28T03:56:05;4.50;99.90
53802;DHT22;39709;53.334;6.534;2023-02-28T03:58:53;4.70;99.90
53802;DHT22;39709;53.334;6.534;2023-02-28T04:01:38;4.50;99.90
53802;DHT22;39709;53.334;6.534;2023-02-28T04:04:07;3.90;99.90
53802;DHT22;39709;53.334;6.534;2023-02-28T04:06:34;4.00;99.90
53802;DHT22;39709;53.334;6.534;2023-02-28T04:09:00;4.40;99.90
53802;DHT22;39709;53.334;6.534;2023-02-28T04:11:48;4.60;99.90
53802;DHT22;39709;53.334;6.534;2023-02-28T04:14:16;4.20;99.90
53802;DHT22;39709;53.334;6.534;2023-02-28T04:16:42;4.20;99.90
53802;DHT22;39709;53.334;6.534;2023-02-28T04:19:10;4.70;99.90
53802;DHT22;39709;53.334;6.534;2023-02-28T04:21:41;4.20;99.90
53802;DHT22;39709;53.334;6.534;2023-02-28T04:24:09;4.40;99.90
53802;DHT22;39709;53.334;6.534;2023-02-28T04:26:40;4.00;99.90
53802;DHT22;39709;53.334;6.534;2023-02-28T04:29:07;4.60;99.90
53802;DHT22;39709;53.334;6.534;2023-02-28T04:31:33;4.40;99.90
53802;DHT22;39709;53.334;6.534;2023-02-28T04:33:59;4.40;99.90
53802;DHT22;39709;53.334;6.534;2023-02-28T04:36:25;4.70;99.90
53802;DHT22;39709;53.334;6.534;2023-02-28T04:38:51;3.80;99.90
53802;DHT22;39709;53.334;6.534;2023-02-28T04:41:18;4.30;99.90
53802;DHT22;39709;53.334;6.534;2023-02-28T04:43:44;4.10;99.90
53802;DHT22;39709;53.334;6.534;2023-02-28T04:46:10;4.40;99.90
53802;DHT22;39709;53.334;6.534;2023-02-28T04:48:38;3.50;99.90
53802;DHT22;39709;53.334;6.534;2023-02-28T04:51:06;4.20;99.90
53802;DHT22;39709;53.334;6.534;2023-02-28T04:53:32;3.40;99.90
53802;DHT22;39709;53.334;6.534;2023-02-28T04:55:58;4.00;99.90
53802;DHT22;39709;53.334;6.534;2023-02-28T04:58:25;4.00;99.90
53802;DHT22;39709;53.334;6.534;2023-02-28T05:00:54;3.40;99.90
53802;DHT22;39709;53.334;6.534;2023-02-28T05:03:26;3.30;99.90
53802;DHT22;39709;53.334;6.534;2023-02-28T05:05:51;3.20;99.90
53802;DHT22;39709;53.334;6.534;2023-02-28T05:08:17;3.60;99.90
53802;DHT22;39709;53.334;6.534;2023-02-28T05:10:43;3.30;99.90
53802;DHT22;39709;53.334;6.534;2023-02-28T05:13:11;3.30;99.90
53802;DHT22;39709;53.334;6.534;2023-02-28T05:15:37;3.20;99.90
53802;DHT22;39709;53.334;6.534;2023-02-28T05:18:03;3.10;99.90
53802;DHT22;39709;53.334;6.534;2023-02-28T05:20:29;3.80;99.90
53802;DHT22;39709;53.334;6.534;2023-02-28T05:23:02;3.80;99.90
53802;DHT22;39709;53.334;6.534;2023-02-28T05:25:28;3.00;99.90
53802;DHT22;39709;53.334;6.534;2023-02-28T05:27:54;3.80;99.90
53802;DHT22;39709;53.334;6.534;2023-02-28T05:30:20;3.30;99.90
53802;DHT22;39709;53.334;6.534;2023-02-28T05:32:50;3.80;99.90
53802;DHT22;39709;53.334;6.534;2023-02-28T05:35:16;3.70;99.90
53802;DHT22;39709;53.334;6.534;2023-02-28T05:37:42;3.60;99.90
53802;DHT22;39709;53.334;6.534;2023-02-28T05:40:09;3.70;99.90
53802;DHT22;39709;53.334;6.534;2023-02-28T05:42:38;3.20;99.90
53802;DHT22;39709;53.334;6.534;2023-02-28T05:45:05;3.70;99.90
53802;DHT22;39709;53.334;6.534;2023-02-28T05:47:32;3.70;99.90
53802;DHT22;39709;53.334;6.534;2023-02-28T05:49:57;3.70;99.90
53802;DHT22;39709;53.334;6.534;2023-02-28T05:52:23;2.80;99.90
53802;DHT22;39709;53.334;6.534;2023-02-28T05:54:49;3.70;99.90
53802;DHT22;39709;53.334;6.534;2023-02-28T05:57:15;3.40;99.90
53802;DHT22;39709;53.334;6.534;2023-02-28T05:59:41;3.90;99.90
53802;DHT22;39709;53.334;6.534;2023-02-28T06:02:15;4.00;99.90
53802;DHT22;39709;53.334;6.534;2023-02-28T06:04:41;4.10;99.90
53802;DHT22;39709;53.334;6.534;2023-02-28T06:07:07;4.00;99.90
53802;DHT22;39709;53.334;6.534;2023-02-28T06:09:33;3.80;99.90
53802;DHT22;39709;53.334;6.534;2023-02-28T06:12:00;3.80;99.90
53802;DHT22;39709;53.334;6.534;2023-02-28T06:14:28;3.30;99.90
53802;DHT22;39709;53.334;6.534;2023-02-28T06:16:54;3.50;99.90
53802;DHT22;39709;53.334;6.534;2023-02-28T06:19:19;2.70;99.90
53802;DHT22;39709;53.334;6.534;2023-02-28T06:21:45;3.40;99.90
53802;DHT22;39709;53.334;6.534;2023-02-28T06:24:14;3.00;99.90
53802;DHT22;39709;53.334;6.534;2023-02-28T06:26:39;3.20;99.90
53802;DHT22;39709;53.334;6.534;2023-02-28T06:29:05;2.70;99.90
53802;DHT22;39709;53.334;6.534;2023-02-28T06:31:31;3.60;99.90
53802;DHT22;39709;53.334;6.534;2023-02-28T06:33:57;3.70;99.90
53802;DHT22;39709;53.334;6.534;2023-02-28T06:36:22;3.70;99.90
53802;DHT22;39709;53.334;6.534;2023-02-28T06:38:48;3.30;99.90
53802;DHT22;39709;53.334;6.534;2023-02-28T06:41:21;3.40;99.90
53802;DHT22;39709;53.334;6.534;2023-02-28T06:43:47;2.70;99.90
53802;DHT22;39709;53.334;6.534;2023-02-28T06:46:13;3.40;99.90
53802;DHT22;39709;53.334;6.534;2023-02-28T06:48:40;3.30;99.90
53802;DHT22;39709;53.334;6.534;2023-02-28T06:51:13;3.20;99.90
53802;DHT22;39709;53.334;6.534;2023-02-28T06:53:40;3.00;99.90
53802;DHT22;39709;53.334;6.534;2023-02-28T06:56:11;3.20;99.90
53802;DHT22;39709;53.334;6.534;2023-02-28T06:58:38;3.20;99.90
53802;DHT22;39709;53.334;6.534;2023-02-28T07:01:05;3.80;99.90
53802;DHT22;39709;53.334;6.534;2023-02-28T07:03:31;2.70;99.90
53802;DHT22;39709;53.334;6.534;2023-02-28T07:05:57;3.20;99.90
53802;DHT22;39709;53.334;6.534;2023-02-28T07:08:24;3.10;99.90
53802;DHT22;39709;53.334;6.534;2023-02-28T07:10:54;2.60;99.90
53802;DHT22;39709;53.334;6.534;2023-02-28T07:13:20;3.50;99.90
53802;DHT22;39709;53.334;6.534;2023-02-28T07:15:57;3.30;99.90
53802;DHT22;39709;53.334;6.534;2023-02-28T07:18:23;2.90;99.90
53802;DHT22;39709;53.334;6.534;2023-02-28T07:20:49;2.70;99.90
53802;DHT22;39709;53.334;6.534;2023-02-28T07:23:15;3.10;99.90
53802;DHT22;39709;53.334;6.534;2023-02-28T07:25:40;2.50;99.90
53802;DHT22;39709;53.334;6.534;2023-02-28T07:28:06;2.60;99.90
53802;DHT22;39709;53.334;6.534;2023-02-28T07:30:32;3.00;99.90
53802;DHT22;39709;53.334;6.534;2023-02-28T07:32:57;3.10;99.90
53802;DHT22;39709;53.334;6.534;2023-02-28T07:35:23;2.80;99.90
53802;DHT22;39709;53.334;6.534;2023-02-28T07:37:49;3.30;99.90
53802;DHT22;39709;53.334;6.534;2023-02-28T07:40:15;2.90;99.90
53802;DHT22;39709;53.334;6.534;2023-02-28T07:42:41;3.40;99.90
53802;DHT22;39709;53.334;6.534;2023-02-28T07:45:08;2.80;99.90
53802;DHT22;39709;53.334;6.534;2023-02-28T07:47:39;2.80;99.90
53802;DHT22;39709;53.334;6.534;2023-02-28T07:50:08;3.00;99.90
53802;DHT22;39709;53.334;6.534;2023-02-28T07:52:36;3.30;99.90
53802;DHT22;39709;53.334;6.534;2023-02-28T07:55:02;3.20;99.90
53802;DHT22;39709;53.334;6.534;2023-02-28T07:57:28;3.10;99.90
53802;DHT22;39709;53.334;6.534;2023-02-28T07:59:53;2.80;99.90
53802;DHT22;39709;53.334;6.534;2023-02-28T08:02:19;2.90;99.90
53802;DHT22;39709;53.334;6.534;2023-02-28T08:04:45;3.20;99.90
53802;DHT22;39709;53.334;6.534;2023-02-28T08:07:12;3.30;99.90
53802;DHT22;39709;53.334;6.534;2023-02-28T08:09:39;2.80;99.90
53802;DHT22;39709;53.334;6.534;2023-02-28T08:12:05;3.40;99.90
53802;DHT22;39709;53.334;6.534;2023-02-28T08:14:31;3.80;99.90
53802;DHT22;39709;53.334;6.534;2023-02-28T08:16:57;2.90;99.90
53802;DHT22;39709;53.334;6.534;2023-02-28T08:19:26;2.80;99.90
53802;DHT22;39709;53.334;6.534;2023-02-28T08:21:51;2.70;99.90
53802;DHT22;39709;53.334;6.534;2023-02-28T08:24:17;3.10;99.90
53802;DHT22;39709;53.334;6.534;2023-02-28T08:26:43;3.30;99.90
53802;DHT22;39709;53.334;6.534;2023-02-28T08:29:08;3.20;99.90
53802;DHT22;39709;53.334;6.534;2023-02-28T08:31:34;3.20;99.90
53802;DHT22;39709;53.334;6.534;2023-02-28T08:34:08;3.40;99.90
53802;DHT22;39709;53.334;6.534;2023-02-28T08:36:34;3.30;99.90
53802;DHT22;39709;53.334;6.534;2023-02-28T08:39:00;2.90;99.90
53802;DHT22;39709;53.334;6.534;2023-02-28T08:41:27;3.40;99.90
53802;DHT22;39709;53.334;6.534;2023-02-28T08:43:52;3.30;99.90
53802;DHT22;39709;53.334;6.534;2023-02-28T08:46:19;3.10;99.90
53802;DHT22;39709;53.334;6.534;2023-02-28T08:48:45;3.50;99.90
53802;DHT22;39709;53.334;6.534;2023-02-28T08:51:14;3.40;99.90
53802;DHT22;39709;53.334;6.534;2023-02-28T08:53:41;3.20;99.90
53802;DHT22;39709;53.334;6.534;2023-02-28T08:56:10;3.90;99.90
53802;DHT22;39709;53.334;6.534;2023-02-28T08:58:36;3.50;99.90
53802;DHT22;39709;53.334;6.534;2023-02-28T09:01:17;3.80;99.90
53802;DHT22;39709;53.334;6.534;2023-02-28T09:03:44;3.50;99.90
53802;DHT22;39709;53.334;6.534;2023-02-28T09:06:12;3.70;99.90
53802;DHT22;39709;53.334;6.534;2023-02-28T09:08:38;2.90;99.90
53802;DHT22;39709;53.334;6.534;2023-02-28T09:11:04;3.70;99.90
53802;DHT22;39709;53.334;6.534;2023-02-28T09:13:30;3.80;99.90
53802;DHT22;39709;53.334;6.534;2023-02-28T09:15:58;3.60;99.90
53802;DHT22;39709;53.334;6.534;2023-02-28T09:18:25;4.00;99.90
53802;DHT22;39709;53.334;6.534;2023-02-28T09:20:52;3.80;99.90
53802;DHT22;39709;53.334;6.534;2023-02-28T09:23:18;3.80;99.90
53802;DHT22;39709;53.334;6.534;2023-02-28T09:25:49;4.10;96.40
53802;DHT22;39709;53.334;6.534;2023-02-28T09:28:15;4.30;99.90
53802;DHT22;39709;53.334;6.534;2023-02-28T09:30:45;4.00;99.90
53802;DHT22;39709;53.334;6.534;2023-02-28T09:33:12;4.20;99.90
53802;DHT22;39709;53.334;6.534;2023-02-28T09:35:38;4.70;94.90
53802;DHT22;39709;53.334;6.534;2023-02-28T09:38:04;4.50;93.30
53802;DHT22;39709;53.334;6.534;2023-02-28T09:40:31;4.00;54.10
53802;DHT22;39709;53.334;6.534;2023-02-28T09:42:58;4.30;41.00
53802;DHT22;39709;53.334;6.534;2023-02-28T09:45:36;4.60;42.50
53802;DHT22;39709;53.334;6.534;2023-02-28T09:48:08;4.30;40.20
53802;DHT22;39709;53.334;6.534;2023-02-28T09:50:41;4.10;49.70
53802;DHT22;39709;53.334;6.534;2023-02-28T09:53:33;4.40;24.90
53802;DHT22;39709;53.334;6.534;2023-02-28T09:56:09;4.30;54.60
53802;DHT22;39709;53.334;6.534;2023-02-28T10:01:29;4.40;57.40
53802;DHT22;39709;53.334;6.534;2023-02-28T10:04:00;4.40;44.10
53802;DHT22;39709;53.334;6.534;2023-02-28T10:06:29;4.50;1.00
53802;DHT22;39709;53.334;6.534;2023-02-28T10:09:27;4.50;1.00
53802;DHT22;39709;53.334;6.534;2023-02-28T10:12:00;4.20;1.00
53802;DHT22;39709;53.334;6.534;2023-02-28T10:14:29;4.10;1.00
53802;DHT22;39709;53.334;6.534;2023-02-28T10:17:10;4.70;1.00
53802;DHT22;39709;53.334;6.534;2023-02-28T10:20:01;4.40;1.00
53802;DHT22;39709;53.334;6.534;2023-02-28T10:25:18;4.30;1.00
53802;DHT22;39709;53.334;6.534;2023-02-28T10:27:44;4.20;1.00
53802;DHT22;39709;53.334;6.534;2023-02-28T10:30:11;4.20;1.00
53802;DHT22;39709;53.334;6.534;2023-02-28T10:32:40;4.60;1.00
53802;DHT22;39709;53.334;6.534;2023-02-28T10:35:20;4.30;1.00
53802;DHT22;39709;53.334;6.534;2023-02-28T10:37:49;4.30;1.00
53802;DHT22;39709;53.334;6.534;2023-02-28T10:40:35;4.50;1.00
53802;DHT22;39709;53.334;6.534;2023-02-28T10:43:05;4.40;1.00
53802;DHT22;39709;53.334;6.534;2023-02-28T10:45:34;4.50;1.00
53802;DHT22;39709;53.334;6.534;2023-02-28T10:48:05;4.50;1.00
53802;DHT22;39709;53.334;6.534;2023-02-28T10:53:30;4.50;1.00
53802;DHT22;39709;53.334;6.534;2023-02-28T11:01:21;4.60;1.00
53802;DHT22;39709;53.334;6.534;2023-02-28T11:03:48;4.60;1.00
53802;DHT22;39709;53.334;6.534;2023-02-28T11:06:17;4.80;1.00
53802;DHT22;39709;53.334;6.534;2023-02-28T11:08:53;5.00;1.00
53802;DHT22;39709;53.334;6.534;2023-02-28T11:11:20;4.70;1.00
53802;DHT22;39709;53.334;6.534;2023-02-28T11:13:49;4.60;1.00
53802;DHT22;39709;53.334;6.534;2023-02-28T11:16:16;4.70;1.00
53802;DHT22;39709;53.334;6.534;2023-02-28T11:18:50;4.80;1.00
53802;DHT22;39709;53.334;6.534;2023-02-28T11:21:29;4.90;1.00
53802;DHT22;39709;53.334;6.534;2023-02-28T11:24:06;4.80;1.00
53802;DHT22;39709;53.334;6.534;2023-02-28T11:26:45;5.10;1.00
53802;DHT22;39709;53.334;6.534;2023-02-28T11:29:28;5.00;99.90
53802;DHT22;39709;53.334;6.534;2023-02-28T11:32:19;5.10;1.00
53802;DHT22;39709;53.334;6.534;2023-02-28T11:34:46;5.20;99.90
53802;DHT22;39709;53.334;6.534;2023-02-28T11:37:20;5.20;99.90
53802;DHT22;39709;53.334;6.534;2023-02-28T11:39:46;5.30;1.00
53802;DHT22;39709;53.334;6.534;2023-02-28T11:42:43;5.30;99.90
53802;DHT22;39709;53.334;6.534;2023-02-28T11:48:09;5.00;99.90
53802;DHT22;39709;53.334;6.534;2023-02-28T11:56:31;5.40;99.90
53802;DHT22;39709;53.334;6.534;2023-02-28T12:02:51;5.80;99.90
53802;DHT22;39709;53.334;6.534;2023-02-28T12:08:09;5.80;99.90
53802;DHT22;39709;53.334;6.534;2023-02-28T12:10:49;5.80;99.90
53802;DHT22;39709;53.334;6.534;2023-02-28T12:27:46;6.50;99.90
53802;DHT22;39709;53.334;6.534;2023-02-28T12:30:29;6.60;99.90
53802;DHT22;39709;53.334;6.534;2023-02-28T12:33:14;6.30;1.00
53802;DHT22;39709;53.334;6.534;2023-02-28T12:35:54;6.60;1.00
53802;DHT22;39709;53.334;6.534;2023-02-28T12:38:31;6.40;1.00
53802;DHT22;39709;53.334;6.534;2023-02-28T12:41:22;6.40;1.00
53802;DHT22;39709;53.334;6.534;2023-02-28T12:44:14;6.00;99.90
53802;DHT22;39709;53.334;6.534;2023-02-28T12:46:51;6.30;99.90
53802;DHT22;39709;53.334;6.534;2023-02-28T12:49:31;6.20;99.90
53802;DHT22;39709;53.334;6.534;2023-02-28T12:51:59;6.10;99.90
53802;DHT22;39709;53.334;6.534;2023-02-28T12:54:37;6.30;99.90
53802;DHT22;39709;53.334;6.534;2023-02-28T12:57:27;6.30;99.90
53802;DHT22;39709;53.334;6.534;2023-02-28T13:00:10;6.40;99.90
53802;DHT22;39709;53.334;6.534;2023-02-28T13:10:42;6.70;99.90
53802;DHT22;39709;53.334;6.534;2023-02-28T13:13:18;6.60;99.90
53802;DHT22;39709;53.334;6.534;2023-02-28T13:18:39;6.90;99.90
53802;DHT22;39709;53.334;6.534;2023-02-28T13:21:10;7.50;1.00
53802;DHT22;39709;53.334;6.534;2023-02-28T13:34:37;7.80;99.90
53802;DHT22;39709;53.334;6.534;2023-02-28T13:39:55;7.00;99.90
53802;DHT22;39709;53.334;6.534;2023-02-28T13:47:32;7.60;1.00
53802;DHT22;39709;53.334;6.534;2023-02-28T14:00:39;7.30;99.90
53802;DHT22;39709;53.334;6.534;2023-02-28T14:06:22;7.50;99.90
53802;DHT22;39709;53.334;6.534;2023-02-28T14:09:01;7.90;1.00
53802;DHT22;39709;53.334;6.534;2023-02-28T14:11:33;7.50;99.90
53802;DHT22;39709;53.334;6.534;2023-02-28T14:14:00;7.40;99.90
53802;DHT22;39709;53.334;6.534;2023-02-28T14:16:39;7.60;99.90
53802;DHT22;39709;53.334;6.534;2023-02-28T14:19:21;7.40;99.90
53802;DHT22;39709;53.334;6.534;2023-02-28T14:31:03;6.50;1.00
53802;DHT22;39709;53.334;6.534;2023-02-28T14:36:40;6.20;1.00
53802;DHT22;39709;53.334;6.534;2023-02-28T14:41:38;6.20;1.00
53802;DHT22;39709;53.334;6.534;2023-02-28T14:46:44;6.00;1.00
53802;DHT22;39709;53.334;6.534;2023-02-28T14:51:43;6.30;1.00
53802;DHT22;39709;53.334;6.534;2023-02-28T14:54:14;6.20;1.00
53802;DHT22;39709;53.334;6.534;2023-02-28T14:56:41;6.60;99.90
53802;DHT22;39709;53.334;6.534;2023-02-28T14:59:25;6.40;1.00
53802;DHT22;39709;53.334;6.534;2023-02-28T15:01:51;6.80;1.00
53802;DHT22;39709;53.334;6.534;2023-02-28T15:04:26;6.60;1.00
53802;DHT22;39709;53.334;6.534;2023-02-28T15:07:14;6.60;99.90
53802;DHT22;39709;53.334;6.534;2023-02-28T15:09:40;6.50;99.90
53802;DHT22;39709;53.334;6.534;2023-02-28T15:12:06;6.60;99.90
53802;DHT22;39709;53.334;6.534;2023-02-28T15:14:43;6.70;99.90
53802;DHT22;39709;53.334;6.534;2023-02-28T15:17:20;7.10;1.00
53802;DHT22;39709;53.334;6.534;2023-02-28T15:19:50;6.70;99.90
53802;DHT22;39709;53.334;6.534;2023-02-28T15:22:23;6.80;99.90
53802;DHT22;39709;53.334;6.534;2023-02-28T15:24:54;6.70;99.90
53802;DHT22;39709;53.334;6.534;2023-02-28T15:27:23;6.80;99.90
53802;DHT22;39709;53.334;6.534;2023-02-28T15:29:56;6.90;99.90
53802;DHT22;39709;53.334;6.534;2023-02-28T15:32:41;6.90;99.90
53802;DHT22;39709;53.334;6.534;2023-02-28T15:37:58;6.80;99.90
53802;DHT22;39709;53.334;6.534;2023-02-28T15:40:43;6.90;99.90
53802;DHT22;39709;53.334;6.534;2023-02-28T15:43:18;6.80;99.90
53802;DHT22;39709;53.334;6.534;2023-02-28T15:45:47;6.90;99.90
53802;DHT22;39709;53.334;6.534;2023-02-28T15:51:01;6.70;99.90
53802;DHT22;39709;53.334;6.534;2023-02-28T15:53:51;6.60;99.90
53802;DHT22;39709;53.334;6.534;2023-02-28T15:56:52;6.70;99.90
53802;DHT22;39709;53.334;6.534;2023-02-28T15:59:26;6.50;99.90
53802;DHT22;39709;53.334;6.534;2023-02-28T16:02:16;6.50;99.90
53802;DHT22;39709;53.334;6.534;2023-02-28T16:05:02;6.40;99.90
53802;DHT22;39709;53.334;6.534;2023-02-28T16:07:28;6.20;99.90
53802;DHT22;39709;53.334;6.534;2023-02-28T16:09:54;6.40;99.90
53802;DHT22;39709;53.334;6.534;2023-02-28T16:12:28;6.50;99.90
53802;DHT22;39709;53.334;6.534;2023-02-28T16:14:57;6.10;99.90
53802;DHT22;39709;53.334;6.534;2023-02-28T16:17:28;6.40;99.90
53802;DHT22;39709;53.334;6.534;2023-02-28T16:19:54;6.30;99.90
53802;DHT22;39709;53.334;6.534;2023-02-28T16:22:20;6.50;99.90
53802;DHT22;39709;53.334;6.534;2023-02-28T16:24:46;6.30;99.90
53802;DHT22;39709;53.334;6.534;2023-02-28T16:27:18;5.90;99.90
53802;DHT22;39709;53.334;6.534;2023-02-28T16:29:46;6.00;99.90
53802;DHT22;39709;53.334;6.534;2023-02-28T16:32:14;6.10;99.90
53802;DHT22;39709;53.334;6.534;2023-02-28T16:34:41;6.10;99.90
53802;DHT22;39709;53.334;6.534;2023-02-28T16:37:12;5.90;1.00
53802;DHT22;39709;53.334;6.534;2023-02-28T16:39:38;6.00;1.00
53802;DHT22;39709;53.334;6.534;2023-02-28T16:42:04;5.90;1.00
53802;DHT22;39709;53.334;6.534;2023-02-28T16:44:33;5.60;1.00
53802;DHT22;39709;53.334;6.534;2023-02-28T16:47:00;6.10;1.00
53802;DHT22;39709;53.334;6.534;2023-02-28T16:49:26;5.70;1.00
53802;DHT22;39709;53.334;6.534;2023-02-28T16:51:53;5.80;1.00
53802;DHT22;39709;53.334;6.534;2023-02-28T16:56:46;5.20;1.00
53802;DHT22;39709;53.334;6.534;2023-02-28T16:59:12;5.50;1.00
53802;DHT22;39709;53.334;6.534;2023-02-28T17:04:10;4.70;1.00
53802;DHT22;39709;53.334;6.534;2023-02-28T17:11:28;5.10;1.00
53802;DHT22;39709;53.334;6.534;2023-02-28T17:13:54;5.70;1.00
53802;DHT22;39709;53.334;6.534;2023-02-28T17:16:29;4.20;1.00
53802;DHT22;39709;53.334;6.534;2023-02-28T17:26:19;4.10;1.00
53802;DHT22;39709;53.334;6.534;2023-02-28T17:28:48;4.20;1.00
53802;DHT22;39709;53.334;6.534;2023-02-28T17:31:14;3.80;1.00
53802;DHT22;39709;53.334;6.534;2023-02-28T17:33:40;4.30;1.00
53802;DHT22;39709;53.334;6.534;2023-02-28T17:36:08;3.90;1.00
53802;DHT22;39709;53.334;6.534;2023-02-28T17:38:35;3.70;1.00
53802;DHT22;39709;53.334;6.534;2023-02-28T17:41:01;4.10;1.00
53802;DHT22;39709;53.334;6.534;2023-02-28T17:43:27;4.10;1.00
53802;DHT22;39709;53.334;6.534;2023-02-28T17:45:53;4.20;1.00
53802;DHT22;39709;53.334;6.534;2023-02-28T17:48:19;3.70;1.00
53802;DHT22;39709;53.334;6.534;2023-02-28T17:50:45;3.80;1.00
53802;DHT22;39709;53.334;6.534;2023-02-28T17:53:11;4.10;1.00
53802;DHT22;39709;53.334;6.534;2023-02-28T17:55:37;4.00;1.00
53802;DHT22;39709;53.334;6.534;2023-02-28T17:58:03;3.60;1.00
53802;DHT22;39709;53.334;6.534;2023-02-28T18:00:29;4.00;1.00
53802;DHT22;39709;53.334;6.534;2023-02-28T18:02:55;3.20;1.00
53802;DHT22;39709;53.334;6.534;2023-02-28T18:05:21;4.00;1.00
53802;DHT22;39709;53.334;6.534;2023-02-28T18:07:46;3.80;1.00
53802;DHT22;39709;53.334;6.534;2023-02-28T18:10:18;3.10;1.00
53802;DHT22;39709;53.334;6.534;2023-02-28T18:12:46;3.60;1.00
53802;DHT22;39709;53.334;6.534;2023-02-28T18:15:12;3.80;1.00
53802;DHT22;39709;53.334;6.534;2023-02-28T18:17:38;3.10;1.00
53802;DHT22;39709;53.334;6.534;2023-02-28T18:20:04;3.50;1.00
53802;DHT22;39709;53.334;6.534;2023-02-28T18:22:30;3.80;1.00
53802;DHT22;39709;53.334;6.534;2023-02-28T18:24:56;3.00;1.00
53802;DHT22;39709;53.334;6.534;2023-02-28T18:27:22;3.00;1.00
53802;DHT22;39709;53.334;6.534;2023-02-28T18:29:47;2.90;1.00
53802;DHT22;39709;53.334;6.534;2023-02-28T18:32:15;3.00;1.00
53802;DHT22;39709;53.334;6.534;2023-02-28T18:34:41;3.30;1.00
53802;DHT22;39709;53.334;6.534;2023-02-28T18:37:06;3.30;1.00
53802;DHT22;39709;53.334;6.534;2023-02-28T18:39:32;3.00;1.00
53802;DHT22;39709;53.334;6.534;2023-02-28T18:41:58;3.10;1.00
53802;DHT22;39709;53.334;6.534;2023-02-28T18:44:23;3.50;1.00